Time;durP1;ratioP1;P1;durP2;ratioP2;P2;SDS_P1;SDS_P2;PMS_P1;PMS_P2;Temp;Humidity;BMP_temperature;BMP_pressure;BME280_temperature;BME280_humidity;BME280_pressure;Samples;Min_cycle;Max_cycle;Signal;HPM_P1;HPM_P2
2022/04/04 00:00:16;;;;;;;9.70;7.80;;;7.00;92.30;;;;;;5050920;28;20458;-67
2022/04/04 00:02:42;;;;;;;7.90;7.10;;;7.40;92.70;;;;;;5050668;28;20189;-67
2022/04/04 00:05:08;;;;;;;7.80;7.00;;;6.90;92.50;;;;;;5052357;28;20386;-67
2022/04/04 00:07:33;;;;;;;8.40;7.57;;;7.30;92.80;;;;;;5051048;28;20200;-67
2022/04/04 00:09:59;;;;;;;8.10;7.40;;;7.50;93.10;;;;;;5051821;28;20441;-67
2022/04/04 00:12:25;;;;;;;8.33;7.63;;;7.00;92.90;;;;;;5049660;28;20611;-67
2022/04/04 00:14:51;;;;;;;9.50;8.30;;;7.30;93.00;;;;;;5051597;28;20184;-67
2022/04/04 00:17:17;;;;;;;9.77;8.00;;;7.20;93.10;;;;;;5053020;28;20423;-67
2022/04/04 00:19:43;;;;;;;9.17;8.00;;;7.30;93.00;;;;;;5055555;28;20919;-67
2022/04/04 00:22:08;;;;;;;9.17;8.27;;;7.40;93.20;;;;;;5056025;28;20278;-67
2022/04/04 00:24:36;;;;;;;10.07;9.03;;;7.30;93.20;;;;;;5054887;28;20207;-67
2022/04/04 00:27:02;;;;;;;9.57;8.57;;;7.00;93.10;;;;;;5055460;28;20230;-67
2022/04/04 00:29:28;;;;;;;8.73;7.93;;;7.30;93.40;;;;;;5053578;28;20427;-67
2022/04/04 00:31:54;;;;;;;10.13;8.93;;;7.30;93.30;;;;;;5055745;28;20756;-67
2022/04/04 00:34:20;;;;;;;10.13;8.80;;;7.20;93.20;;;;;;5053475;28;20510;-67
2022/04/04 00:36:46;;;;;;;9.20;8.30;;;7.20;93.00;;;;;;5055703;28;20510;-67
2022/04/04 00:39:15;;;;;;;9.10;8.20;;;7.10;93.10;;;;;;5054208;28;20780;-67
2022/04/04 00:41:42;;;;;;;10.00;8.17;;;6.70;93.10;;;;;;5055345;28;20413;-67
2022/04/04 00:44:08;;;;;;;10.63;8.50;;;7.00;93.40;;;;;;5055507;28;20441;-67
2022/04/04 00:46:38;;;;;;;8.63;7.83;;;7.00;93.50;;;;;;5054670;28;20418;-67
2022/04/04 00:49:05;;;;;;;9.67;8.70;;;6.90;93.60;;;;;;5055573;28;20406;-67
2022/04/04 00:51:30;;;;;;;10.50;8.57;;;7.10;93.80;;;;;;5054689;28;20432;-67
2022/04/04 00:53:56;;;;;;;9.73;8.73;;;6.90;93.80;;;;;;5055245;28;20899;-67
2022/04/04 00:56:22;;;;;;;10.77;9.70;;;6.90;93.80;;;;;;5054295;28;20175;-67
2022/04/04 00:58:48;;;;;;;10.53;9.43;;;6.80;93.80;;;;;;5055113;28;20211;-67
2022/04/04 01:01:14;;;;;;;16.03;10.23;;;6.30;93.60;;;;;;5055078;28;20766;-67
2022/04/04 01:03:40;;;;;;;10.17;9.10;;;6.80;94.10;;;;;;5054240;28;20817;-67
2022/04/04 01:06:06;;;;;;;11.10;10.00;;;7.00;94.30;;;;;;5054443;28;20583;-67
2022/04/04 01:08:32;;;;;;;10.83;9.83;;;7.00;94.50;;;;;;5053873;28;20184;-67
2022/04/04 01:10:58;;;;;;;11.90;10.80;;;6.80;94.50;;;;;;5054937;28;20490;-67
2022/04/04 01:13:23;;;;;;;12.57;10.17;;;6.80;94.60;;;;;;5053976;28;20183;-67
2022/04/04 01:15:50;;;;;;;10.40;9.30;;;7.00;95.10;;;;;;5054690;28;20234;-67
2022/04/04 01:18:16;;;;;;;11.67;9.90;;;6.50;94.60;;;;;;5052589;28;20207;-70
2022/04/04 01:20:42;;;;;;;11.10;10.00;;;6.80;94.70;;;;;;5053580;28;20465;-67
2022/04/04 01:23:08;;;;;;;10.87;9.70;;;6.90;94.70;;;;;;5054260;28;20429;-67
2022/04/04 01:25:35;;;;;;;10.90;9.80;;;6.90;94.60;;;;;;5052484;28;20186;-67
2022/04/04 01:28:02;;;;;;;10.70;9.40;;;6.50;94.40;;;;;;5054255;28;20184;-67
2022/04/04 01:30:28;;;;;;;10.97;9.87;;;6.90;94.70;;;;;;5053511;28;20442;-67
2022/04/04 01:32:54;;;;;;;11.23;10.03;;;6.90;94.80;;;;;;5054917;28;20488;-67
2022/04/04 01:35:21;;;;;;;11.10;10.00;;;6.80;94.60;;;;;;5054045;28;20226;-70
2022/04/04 01:37:48;;;;;;;10.93;9.83;;;6.90;94.50;;;;;;5054430;28;20504;-67
2022/04/04 01:40:15;;;;;;;10.77;9.67;;;6.50;94.30;;;;;;5052832;28;20488;-67
2022/04/04 01:42:45;;;;;;;11.40;10.30;;;7.00;94.50;;;;;;5053561;28;20417;-67
2022/04/04 01:45:11;;;;;;;11.60;10.50;;;7.00;94.50;;;;;;5054146;28;20875;-67
2022/04/04 01:47:38;;;;;;;10.97;9.93;;;7.20;94.60;;;;;;5053321;28;21232;-67
2022/04/04 01:50:04;;;;;;;10.97;10.00;;;7.00;94.30;;;;;;5054263;28;20407;-67
2022/04/04 01:52:30;;;;;;;14.43;10.10;;;7.00;94.30;;;;;;5053461;28;20413;-67
2022/04/04 01:54:56;;;;;;;10.47;9.47;;;7.00;94.40;;;;;;5054194;28;20420;-67
2022/04/04 01:57:22;;;;;;;10.40;9.40;;;7.10;94.40;;;;;;5053464;28;20419;-69
2022/04/04 01:59:48;;;;;;;10.30;8.90;;;7.10;94.40;;;;;;5053977;28;20176;-67
2022/04/04 02:02:13;;;;;;;10.60;9.60;;;7.10;94.40;;;;;;5054094;28;20416;-67
2022/04/04 02:04:39;;;;;;;10.80;8.57;;;7.30;94.40;;;;;;5053270;28;20181;-67
2022/04/04 02:07:08;;;;;;;9.53;8.60;;;7.40;94.60;;;;;;5053942;28;20199;-67
2022/04/04 02:09:34;;;;;;;10.60;8.20;;;7.10;94.30;;;;;;5053459;28;20184;-67
2022/04/04 02:12:00;;;;;;;9.93;9.13;;;7.20;94.60;;;;;;5054157;28;20998;-67
2022/04/04 02:14:26;;;;;;;10.23;9.33;;;6.70;94.10;;;;;;5053045;28;20416;-67
2022/04/04 02:16:52;;;;;;;9.07;8.20;;;6.60;94.30;;;;;;5053845;28;20179;-67
2022/04/04 02:19:18;;;;;;;10.73;9.77;;;7.10;94.40;;;;;;5053635;28;20451;-67
2022/04/04 02:21:44;;;;;;;11.23;10.10;;;6.70;94.60;;;;;;5052587;28;20458;-67
2022/04/04 02:24:11;;;;;;;11.20;10.10;;;7.10;94.50;;;;;;5053427;28;20189;-67
2022/04/04 02:26:37;;;;;;;11.07;9.83;;;6.60;94.30;;;;;;5051431;28;20803;-67
2022/04/04 02:29:03;;;;;;;10.00;8.97;;;7.10;94.60;;;;;;5052911;28;20839;-67
2022/04/04 02:31:29;;;;;;;11.20;10.00;;;7.20;94.60;;;;;;5050982;28;20465;-67
2022/04/04 02:33:54;;;;;;;10.93;9.80;;;7.10;94.50;;;;;;5053119;28;20458;-67
2022/04/04 02:36:20;;;;;;;9.70;8.63;;;7.10;94.50;;;;;;5053031;28;20185;-70
2022/04/04 02:38:46;;;;;;;10.60;9.30;;;7.10;94.50;;;;;;5052227;28;20229;-67
2022/04/04 02:41:12;;;;;;;11.10;10.00;;;7.10;94.50;;;;;;5052299;28;20427;-67
2022/04/04 02:43:39;;;;;;;12.43;9.20;;;6.80;94.20;;;;;;5052028;28;20914;-67
2022/04/04 02:46:05;;;;;;;10.20;9.30;;;7.20;94.40;;;;;;5052851;28;20415;-67
2022/04/04 02:48:31;;;;;;;11.23;10.13;;;7.20;94.40;;;;;;5052390;28;20497;-67
2022/04/04 02:50:57;;;;;;;12.60;9.43;;;7.40;94.40;;;;;;5053342;28;20514;-67
2022/04/04 02:53:23;;;;;;;11.50;8.97;;;7.20;94.20;;;;;;5052969;28;20851;-70
2022/04/04 02:58:33;;;;;;;9.47;8.47;;;7.10;94.20;;;;;;5052145;28;20541;-67
2022/04/04 03:00:59;;;;;;;10.20;8.77;;;7.20;94.40;;;;;;5052608;28;20501;-67
2022/04/04 03:03:25;;;;;;;9.10;8.10;;;7.10;94.90;;;;;;5052343;28;20442;-69
2022/04/04 03:05:50;;;;;;;9.73;8.77;;;7.20;94.80;;;;;;5052421;28;20190;-67
2022/04/04 03:08:16;;;;;;;10.20;8.63;;;6.90;94.50;;;;;;5051326;28;20441;-67
2022/04/04 03:10:42;;;;;;;11.30;9.73;;;6.80;94.50;;;;;;5052066;28;20180;-66
2022/04/04 03:13:07;;;;;;;9.77;8.70;;;7.10;94.70;;;;;;5053153;28;20219;-67
2022/04/04 03:15:34;;;;;;;11.23;9.10;;;7.10;95.00;;;;;;5051878;28;20180;-67
2022/04/04 03:18:01;;;;;;;9.60;8.60;;;6.70;94.90;;;;;;5052326;28;20667;-67
2022/04/04 03:20:27;;;;;;;9.33;8.30;;;7.30;95.00;;;;;;5051732;28;20458;-70
2022/04/04 03:22:55;;;;;;;10.07;9.00;;;6.80;94.50;;;;;;5051147;28;20439;-67
2022/04/04 03:25:21;;;;;;;11.23;8.67;;;7.20;94.50;;;;;;5052720;28;20757;-67
2022/04/04 03:27:48;;;;;;;10.67;9.20;;;7.20;94.40;;;;;;5051735;28;20408;-67
2022/04/04 03:30:19;;;;;;;11.17;8.80;;;7.20;94.50;;;;;;5052090;28;20419;-66
2022/04/04 03:32:46;;;;;;;9.80;8.43;;;7.10;94.20;;;;;;5050954;28;20426;-67
2022/04/04 03:35:16;;;;;;;10.10;8.50;;;7.20;94.10;;;;;;5052651;28;20432;-67
2022/04/04 03:37:46;;;;;;;10.77;9.00;;;7.30;94.10;;;;;;5050439;28;20502;-68
2022/04/04 03:40:13;;;;;;;10.60;9.40;;;7.20;93.80;;;;;;5051836;28;20909;-67
2022/04/04 03:42:44;;;;;;;10.10;8.77;;;7.20;94.00;;;;;;5051340;28;20426;-67
2022/04/04 03:45:11;;;;;;;10.93;9.07;;;6.70;93.80;;;;;;5052451;28;20448;-67
2022/04/04 03:47:38;;;;;;;9.60;8.70;;;7.10;94.10;;;;;;5051423;28;20420;-67
2022/04/04 03:50:06;;;;;;;10.30;8.83;;;7.10;94.00;;;;;;5052141;28;20400;-67
2022/04/04 03:52:31;;;;;;;10.63;8.50;;;7.00;93.80;;;;;;5049125;28;20427;-67
2022/04/04 03:54:57;;;;;;;9.30;8.30;;;7.00;94.00;;;;;;5050920;28;20427;-67
2022/04/04 03:57:23;;;;;;;11.63;8.53;;;7.10;94.10;;;;;;5051650;28;20446;-66
2022/04/04 03:59:49;;;;;;;12.10;10.70;;;7.40;94.20;;;;;;5051226;28;20984;-67
2022/04/04 04:02:15;;;;;;;9.63;8.63;;;7.30;94.00;;;;;;5051697;28;20181;-67
2022/04/04 04:04:40;;;;;;;9.20;8.30;;;7.20;94.10;;;;;;5050855;28;20179;-67
2022/04/04 04:07:10;;;;;;;10.30;9.30;;;7.20;93.90;;;;;;5051259;28;20210;-67
2022/04/04 04:09:37;;;;;;;11.07;8.30;;;7.20;93.90;;;;;;5051236;28;20229;-67
2022/04/04 04:12:03;;;;;;;9.87;8.50;;;7.30;93.80;;;;;;5051935;28;20829;-67
2022/04/04 04:14:29;;;;;;;9.40;7.80;;;7.60;93.80;;;;;;5051450;28;20389;-70
2022/04/04 04:16:55;;;;;;;12.20;10.00;;;7.30;93.70;;;;;;5051122;28;20441;-67
2022/04/04 04:22:05;;;;;;;10.40;9.13;;;7.00;93.60;;;;;;5052080;28;20536;-67
2022/04/04 04:24:31;;;;;;;11.27;10.10;;;7.00;93.60;;;;;;5050661;28;20445;-68
2022/04/04 04:26:57;;;;;;;10.00;8.47;;;7.20;93.60;;;;;;5051817;28;20179;-67
2022/04/04 04:29:22;;;;;;;10.53;8.90;;;7.10;93.50;;;;;;5050496;28;20188;-67
2022/04/04 04:31:48;;;;;;;11.83;10.67;;;7.10;93.80;;;;;;5051046;28;20180;-67
2022/04/04 04:34:14;;;;;;;12.07;10.97;;;7.10;93.90;;;;;;5050500;28;20184;-67
2022/04/04 04:36:40;;;;;;;9.70;8.70;;;7.10;93.80;;;;;;5050789;28;20433;-67
2022/04/04 04:39:06;;;;;;;12.40;10.20;;;7.00;93.40;;;;;;5051707;28;20573;-67
2022/04/04 04:41:32;;;;;;;13.73;11.37;;;7.10;93.40;;;;;;5049731;28;20691;-68
2022/04/04 04:44:02;;;;;;;12.90;11.10;;;7.10;92.80;;;;;;5051235;28;20521;-67
2022/04/04 04:46:29;;;;;;;14.53;10.47;;;7.00;93.10;;;;;;5051237;28;20421;-70
2022/04/04 04:48:55;;;;;;;11.20;9.80;;;6.90;93.00;;;;;;5033412;28;20455;-67
2022/04/04 04:51:20;;;;;;;13.03;11.63;;;6.70;93.20;;;;;;5051268;28;21032;-67
2022/04/04 04:53:46;;;;;;;12.00;10.10;;;6.90;93.20;;;;;;5049356;28;20248;-65
2022/04/04 04:56:12;;;;;;;14.20;12.53;;;6.80;93.60;;;;;;5051359;28;20175;-65
2022/04/04 04:58:38;;;;;;;11.57;10.13;;;7.00;93.60;;;;;;5050451;28;20254;-66
2022/04/04 05:01:03;;;;;;;11.60;9.90;;;6.80;93.00;;;;;;5051526;28;20220;-65
2022/04/04 05:03:29;;;;;;;11.27;9.77;;;7.00;93.20;;;;;;5053518;28;20190;-70
2022/04/04 05:05:55;;;;;;;10.77;9.67;;;6.80;93.10;;;;;;5054597;28;20190;-65
2022/04/04 05:08:21;;;;;;;13.83;12.50;;;7.00;93.00;;;;;;5054355;28;20425;-66
2022/04/04 05:10:47;;;;;;;13.50;10.40;;;7.00;92.80;;;;;;5055033;28;20432;-66
2022/04/04 05:13:13;;;;;;;14.07;11.10;;;6.80;92.50;;;;;;5053699;28;20183;-66
2022/04/04 05:15:40;;;;;;;12.93;10.90;;;6.70;92.50;;;;;;5035868;28;20418;-67
2022/04/04 05:18:06;;;;;;;12.83;10.70;;;6.80;92.60;;;;;;5053541;28;20424;-66
2022/04/04 05:20:32;;;;;;;11.00;9.60;;;6.90;92.70;;;;;;5053379;28;20505;-66
2022/04/04 05:22:58;;;;;;;12.27;9.97;;;6.60;92.40;;;;;;5054336;28;20574;-66
2022/04/04 05:25:24;;;;;;;12.93;11.40;;;6.80;92.40;;;;;;5055002;28;20473;-65
2022/04/04 05:27:50;;;;;;;14.37;13.03;;;6.80;92.40;;;;;;5054200;28;20184;-66
2022/04/04 05:30:17;;;;;;;12.00;10.80;;;6.60;92.20;;;;;;5054499;28;20393;-65
2022/04/04 05:32:43;;;;;;;13.23;10.17;;;7.10;92.80;;;;;;5053916;28;20446;-66
2022/04/04 05:35:12;;;;;;;11.40;10.00;;;6.80;92.20;;;;;;5054335;28;20429;-66
2022/04/04 05:37:38;;;;;;;11.37;10.17;;;6.90;92.20;;;;;;5053931;28;20576;-66
2022/04/04 05:40:05;;;;;;;12.63;10.70;;;6.80;92.00;;;;;;5054629;28;20430;-66
2022/04/04 05:42:31;;;;;;;13.67;12.20;;;6.80;91.90;;;;;;5054377;28;20780;-66
2022/04/04 05:44:57;;;;;;;11.93;10.60;;;6.80;92.10;;;;;;5046691;28;20921;-67
2022/04/04 05:47:23;;;;;;;13.27;9.97;;;6.50;92.10;;;;;;5035107;28;20179;-67
2022/04/04 05:49:49;;;;;;;10.43;8.87;;;6.70;92.10;;;;;;5053313;28;20412;-67
2022/04/04 05:52:15;;;;;;;9.60;8.60;;;6.60;91.90;;;;;;5054458;28;20299;-66
2022/04/04 05:54:54;;;;;;;10.43;8.80;;;6.60;91.70;;;;;;5052899;28;20405;-66
2022/04/04 05:57:28;;;;;;;11.17;9.57;;;6.70;91.70;;;;;;5052571;28;20881;-66
2022/04/04 05:59:54;;;;;;;12.43;9.60;;;6.80;92.00;;;;;;5053293;28;20461;-66
2022/04/04 06:02:21;;;;;;;13.82;10.02;;;6.70;91.80;;;;;;5052719;28;20820;-66
2022/04/04 06:04:47;;;;;;;10.43;9.30;;;6.90;91.80;;;;;;5053190;28;20176;-66
2022/04/04 06:07:13;;;;;;;12.17;9.40;;;6.80;91.80;;;;;;5052595;28;20640;-66
2022/04/04 06:09:39;;;;;;;13.83;10.70;;;6.70;91.90;;;;;;5053510;28;20426;-66
2022/04/04 06:12:05;;;;;;;12.63;9.70;;;6.50;92.00;;;;;;5053098;28;20341;-66
2022/04/04 06:14:30;;;;;;;10.87;9.63;;;6.70;92.10;;;;;;5053549;28;20615;-66
2022/04/04 06:16:56;;;;;;;11.60;10.40;;;6.80;92.20;;;;;;5053287;28;20413;-66
2022/04/04 06:19:22;;;;;;;9.80;8.80;;;7.00;92.10;;;;;;5053586;28;20213;-66
2022/04/04 06:21:48;;;;;;;12.57;9.77;;;7.10;91.80;;;;;;5051789;28;20650;-67
2022/04/04 06:24:14;;;;;;;12.73;11.00;;;6.70;91.50;;;;;;5053515;28;20190;-66
2022/04/04 06:26:40;;;;;;;10.67;9.57;;;6.80;91.50;;;;;;5053278;28;20396;-66
2022/04/04 06:29:09;;;;;;;11.87;8.13;;;6.90;91.80;;;;;;5053811;28;20262;-66
2022/04/04 06:31:38;;;;;;;11.07;8.70;;;7.00;91.60;;;;;;5060752;28;20425;-69
2022/04/04 06:34:04;;;;;;;11.47;9.43;;;7.10;91.60;;;;;;5069463;28;20433;-66
2022/04/04 06:36:31;;;;;;;10.33;9.10;;;6.90;91.50;;;;;;5062696;28;20775;-66
2022/04/04 06:38:58;;;;;;;9.55;8.60;;;6.80;91.30;;;;;;5051724;28;20461;-66
2022/04/04 06:41:24;;;;;;;11.75;8.60;;;6.60;91.10;;;;;;5053770;28;20258;-66
2022/04/04 06:43:50;;;;;;;9.37;7.90;;;6.90;91.40;;;;;;5053044;28;20270;-66
2022/04/04 06:46:17;;;;;;;8.57;7.70;;;6.90;91.40;;;;;;5053752;28;20388;-66
2022/04/04 06:48:45;;;;;;;10.93;8.97;;;6.90;91.40;;;;;;5052772;28;20582;-66
2022/04/04 06:51:11;;;;;;;8.60;7.67;;;7.00;91.20;;;;;;5053433;28;20417;-66
2022/04/04 06:53:37;;;;;;;8.10;7.30;;;7.00;91.20;;;;;;5052538;28;20497;-67
2022/04/04 06:56:04;;;;;;;12.80;7.10;;;7.10;90.80;;;;;;5052125;28;20473;-67
2022/04/04 06:58:29;;;;;;;8.53;7.10;;;7.20;90.40;;;;;;5049708;28;20518;-66
2022/04/04 07:00:55;;;;;;;8.47;7.67;;;7.10;90.40;;;;;;5071316;28;20777;-66
2022/04/04 07:03:21;;;;;;;10.23;8.13;;;7.30;90.50;;;;;;5073351;28;20179;-66
2022/04/04 07:05:47;;;;;;;9.90;8.37;;;7.20;90.00;;;;;;5071412;28;20611;-66
2022/04/04 07:08:13;;;;;;;8.43;7.53;;;7.20;90.00;;;;;;5072170;28;20179;-67
2022/04/04 07:10:38;;;;;;;10.93;8.47;;;7.20;89.80;;;;;;5069645;28;20529;-67
2022/04/04 07:13:05;;;;;;;8.03;7.33;;;7.00;89.40;;;;;;5073114;28;20176;-66
2022/04/04 07:15:31;;;;;;;8.70;7.13;;;7.30;90.60;;;;;;5061079;28;20632;-66
2022/04/04 07:17:57;;;;;;;6.93;6.07;;;7.30;90.50;;;;;;5051374;28;20523;-66
2022/04/04 07:20:23;;;;;;;7.70;7.00;;;7.00;90.00;;;;;;5047931;28;20461;-66
2022/04/04 07:22:49;;;;;;;9.20;6.60;;;6.90;90.00;;;;;;5063599;28;20395;-66
2022/04/04 07:25:15;;;;;;;9.27;8.37;;;7.20;90.30;;;;;;5061402;28;20440;-66
2022/04/04 07:27:42;;;;;;;8.60;7.80;;;7.00;90.20;;;;;;5051983;28;20914;-66
2022/04/04 07:30:10;;;;;;;8.23;7.13;;;7.40;90.60;;;;;;5052404;28;20624;-66
2022/04/04 07:32:37;;;;;;;9.87;7.23;;;7.40;90.60;;;;;;5052788;28;20762;-66
2022/04/04 07:35:04;;;;;;;8.43;7.53;;;7.50;90.40;;;;;;5052477;28;20707;-66
2022/04/04 07:37:30;;;;;;;7.70;6.70;;;7.60;90.40;;;;;;5052590;28;20909;-66
2022/04/04 07:39:56;;;;;;;11.90;7.57;;;7.50;90.40;;;;;;5052013;28;20504;-66
2022/04/04 07:42:22;;;;;;;10.00;8.20;;;7.60;90.90;;;;;;5052740;28;20423;-66
2022/04/04 07:44:47;;;;;;;9.10;8.13;;;7.50;90.30;;;;;;5052107;28;20381;-66
2022/04/04 07:47:13;;;;;;;9.07;7.83;;;7.20;90.30;;;;;;5049817;28;20664;-66
2022/04/04 07:49:39;;;;;;;10.17;8.53;;;7.40;90.10;;;;;;5034277;28;20184;-69
2022/04/04 07:52:05;;;;;;;8.63;7.80;;;7.50;90.40;;;;;;5052525;28;20226;-66
2022/04/04 07:54:31;;;;;;;8.37;7.50;;;7.60;90.50;;;;;;5052744;28;20261;-66
2022/04/04 07:56:56;;;;;;;10.47;8.00;;;7.70;90.50;;;;;;5051859;28;20445;-66
2022/04/04 07:59:23;;;;;;;8.40;7.70;;;7.80;90.30;;;;;;5052357;28;20232;-66
2022/04/04 08:01:49;;;;;;;10.20;9.13;;;7.70;90.10;;;;;;5050629;28;20423;-66
2022/04/04 08:04:14;;;;;;;9.90;7.40;;;7.90;90.10;;;;;;5044106;28;20912;-66
2022/04/04 08:06:40;;;;;;;8.97;7.47;;;7.80;90.10;;;;;;5045228;28;20679;-68
2022/04/04 08:09:07;;;;;;;8.80;7.90;;;7.80;90.20;;;;;;5052358;28;20599;-66
2022/04/04 08:11:33;;;;;;;9.60;7.67;;;7.80;90.20;;;;;;5052211;28;20204;-66
2022/04/04 08:13:58;;;;;;;10.57;9.67;;;8.00;90.50;;;;;;5052032;28;20503;-66
2022/04/04 08:16:26;;;;;;;11.43;10.30;;;8.00;90.20;;;;;;5056297;28;20186;-66
2022/04/04 08:18:53;;;;;;;8.33;7.37;;;8.30;90.40;;;;;;5068287;28;20240;-66
2022/04/04 08:21:19;;;;;;;7.97;7.13;;;8.20;89.50;;;;;;5072177;28;20436;-66
2022/04/04 08:23:45;;;;;;;11.07;9.17;;;8.10;88.60;;;;;;5063536;28;20424;-67
2022/04/04 08:26:11;;;;;;;9.17;7.70;;;8.10;88.30;;;;;;5052372;28;20442;-66
2022/04/04 08:28:37;;;;;;;8.70;7.90;;;8.20;88.80;;;;;;5046945;28;20181;-66
2022/04/04 08:31:03;;;;;;;8.90;7.33;;;8.20;89.80;;;;;;5041334;28;20644;-66
2022/04/04 08:33:30;;;;;;;7.83;7.03;;;8.20;88.80;;;;;;5032150;28;20853;-66
2022/04/04 08:35:57;;;;;;;8.83;7.93;;;8.30;88.90;;;;;;5031150;28;20452;-67
2022/04/04 08:38:23;;;;;;;8.40;7.50;;;7.80;86.90;;;;;;5036710;28;20252;-67
2022/04/04 08:40:50;;;;;;;8.77;7.60;;;8.20;87.80;;;;;;5052771;28;20512;-67
2022/04/04 08:43:18;;;;;;;8.00;6.60;;;8.20;87.30;;;;;;5039686;28;20420;-67
2022/04/04 08:45:44;;;;;;;8.53;7.20;;;8.30;88.20;;;;;;5048837;28;20429;-67
2022/04/04 08:48:11;;;;;;;8.30;7.50;;;8.30;87.30;;;;;;5046614;28;20504;-66
2022/04/04 08:50:39;;;;;;;7.60;6.90;;;8.40;87.30;;;;;;5049511;28;20432;-66
2022/04/04 08:53:08;;;;;;;8.83;7.13;;;8.50;88.10;;;;;;5043642;28;20439;-66
2022/04/04 08:55:35;;;;;;;7.37;6.73;;;8.10;86.90;;;;;;5045678;28;20432;-66
2022/04/04 08:58:01;;;;;;;8.80;6.80;;;8.70;87.00;;;;;;5047481;28;20455;-66
2022/04/04 09:00:27;;;;;;;333.23;166.43;;;8.80;87.10;;;;;;5045323;28;20432;-67
2022/04/04 09:03:20;;;;;;;26.80;20.00;;;8.90;87.70;;;;;;5051702;28;20502;-66
2022/04/04 09:05:57;;;;;;;9.03;6.80;;;9.00;86.70;;;;;;5035917;28;20179;-68
2022/04/04 09:08:24;;;;;;;7.83;6.40;;;9.00;85.70;;;;;;5036916;28;20532;-68
2022/04/04 09:10:55;;;;;;;9.00;8.30;;;8.90;84.30;;;;;;5017916;28;20511;-68
2022/04/04 09:13:22;;;;;;;7.33;6.60;;;8.90;84.80;;;;;;5049940;28;20429;-68
2022/04/04 09:15:55;;;;;;;7.47;6.83;;;8.80;86.30;;;;;;5054431;28;20509;-68
2022/04/04 09:18:49;;;;;;;8.73;7.47;;;8.90;86.60;;;;;;5053249;28;20451;-68
2022/04/04 09:21:18;;;;;;;7.63;6.87;;;8.90;87.40;;;;;;5051932;28;20491;-68
2022/04/04 09:23:46;;;;;;;6.63;6.03;;;9.10;87.40;;;;;;5038910;28;20433;-67
2022/04/04 09:26:31;;;;;;;8.00;7.20;;;8.90;86.60;;;;;;5035568;28;20429;-66
2022/04/04 09:29:07;;;;;;;8.47;7.63;;;9.00;88.10;;;;;;5034174;28;20987;-66
2022/04/04 09:31:34;;;;;;;9.27;8.37;;;9.10;87.90;;;;;;5035413;28;20409;-66
2022/04/04 09:34:02;;;;;;;9.53;8.73;;;8.50;85.70;;;;;;5050920;28;20471;-66
2022/04/04 09:36:28;;;;;;;8.10;7.30;;;8.80;86.40;;;;;;5050544;28;20511;-66
2022/04/04 09:38:55;;;;;;;7.40;6.80;;;8.70;87.00;;;;;;5038536;28;20551;-67
2022/04/04 09:41:24;;;;;;;7.70;7.00;;;8.70;87.00;;;;;;5042874;28;20427;-67
2022/04/04 09:43:54;;;;;;;8.80;8.00;;;8.80;89.20;;;;;;5035875;28;20511;-66
2022/04/04 09:46:21;;;;;;;7.93;7.13;;;8.90;86.70;;;;;;5035529;28;20792;-66
2022/04/04 09:49:06;;;;;;;7.80;6.60;;;9.00;85.40;;;;;;5034188;28;20421;-68
2022/04/04 09:51:41;;;;;;;11.20;9.30;;;9.10;85.40;;;;;;5046975;28;20477;-66
2022/04/04 09:54:30;;;;;;;8.20;7.50;;;9.20;84.80;;;;;;5039959;28;20451;-66
2022/04/04 09:57:10;;;;;;;39.30;27.03;;;9.10;84.00;;;;;;5046472;28;20857;-66
2022/04/04 09:59:41;;;;;;;7.77;6.97;;;9.00;84.10;;;;;;5046105;28;20569;-67
2022/04/04 10:02:07;;;;;;;8.07;7.30;;;9.00;83.60;;;;;;5053039;28;20769;-67
2022/04/04 10:04:34;;;;;;;8.80;7.90;;;9.00;83.40;;;;;;5063242;28;20423;-67
2022/04/04 10:07:07;;;;;;;7.67;6.97;;;8.50;83.80;;;;;;5053633;28;20436;-67
2022/04/04 10:09:34;;;;;;;7.77;6.30;;;8.90;84.50;;;;;;5054181;28;20413;-67
2022/04/04 10:12:01;;;;;;;8.00;6.90;;;8.90;84.70;;;;;;5051524;28;20416;-67
2022/04/04 10:14:29;;;;;;;6.60;6.03;;;9.20;86.10;;;;;;5051501;28;20499;-66
2022/04/04 10:16:56;;;;;;;11.03;9.00;;;9.00;84.90;;;;;;5052678;28;20798;-66
2022/04/04 10:19:25;;;;;;;8.70;8.00;;;8.90;85.90;;;;;;5053849;28;20876;-66
2022/04/04 10:21:51;;;;;;;15.30;9.47;;;8.90;89.70;;;;;;5046146;28;20456;-69
2022/04/04 10:24:18;;;;;;;7.87;7.17;;;8.90;90.10;;;;;;5068764;28;20420;-67
2022/04/04 10:26:48;;;;;;;81.33;55.47;;;8.90;90.50;;;;;;5052773;28;20178;-66
2022/04/04 10:29:20;;;;;;;32.00;21.93;;;8.40;91.40;;;;;;5053766;28;20535;-66
2022/04/04 10:31:54;;;;;;;9.00;8.20;;;8.90;92.90;;;;;;5053930;28;20423;-66
2022/04/04 10:34:22;;;;;;;11.37;8.67;;;8.60;93.50;;;;;;5053600;28;20431;-66
2022/04/04 10:37:11;;;;;;;9.47;8.57;;;8.60;94.90;;;;;;5052886;28;20435;-66
2022/04/04 10:39:47;;;;;;;9.57;8.67;;;8.50;94.90;;;;;;5050112;28;20609;-67
2022/04/04 10:42:43;;;;;;;9.40;8.60;;;8.50;95.60;;;;;;5039480;28;20439;-69
2022/04/04 10:45:13;;;;;;;9.33;8.40;;;8.30;96.30;;;;;;5026377;28;20429;-69
2022/04/04 10:47:44;;;;;;;9.20;8.30;;;8.30;96.80;;;;;;5040552;28;20422;-69
2022/04/04 10:50:20;;;;;;;10.10;9.10;;;8.30;97.30;;;;;;5053887;28;20416;-69
2022/04/04 10:52:46;;;;;;;9.93;8.80;;;8.20;99.00;;;;;;5049371;28;20518;-69
2022/04/04 10:55:27;;;;;;;8.90;8.10;;;8.20;99.20;;;;;;5052830;28;20429;-69
2022/04/04 10:58:00;;;;;;;9.70;8.50;;;8.30;99.00;;;;;;5052893;28;20455;-80
2022/04/04 11:00:34;;;;;;;8.60;7.73;;;8.30;99.90;;;;;;5051399;28;20454;-69
2022/04/04 11:03:03;;;;;;;10.47;9.53;;;8.30;99.80;;;;;;5051944;28;20427;-68
2022/04/04 11:08:32;;;;;;;11.50;10.43;;;8.10;99.90;;;;;;5044817;28;20424;-69
2022/04/04 11:10:58;;;;;;;10.30;9.23;;;8.10;99.90;;;;;;5047385;28;20879;-69
2022/04/04 11:13:24;;;;;;;13.03;12.03;;;8.10;99.90;;;;;;5042038;28;20468;-69
2022/04/04 11:15:55;;;;;;;10.87;9.83;;;8.00;99.90;;;;;;5036552;28;20182;-68
2022/04/04 11:18:25;;;;;;;12.50;10.40;;;8.00;99.90;;;;;;5049259;28;20464;-69
2022/04/04 11:21:01;;;;;;;10.83;9.80;;;7.90;99.90;;;;;;5041419;28;20493;-78
2022/04/04 11:23:37;;;;;;;11.03;9.80;;;7.80;99.90;;;;;;5042880;28;20430;-71
2022/04/04 11:26:08;;;;;;;10.60;9.50;;;7.80;99.90;;;;;;5043947;28;20509;-69
2022/04/04 11:28:38;;;;;;;10.77;9.70;;;7.80;99.90;;;;;;5050335;28;20431;-70
2022/04/04 11:31:09;;;;;;;10.43;9.43;;;7.30;99.90;;;;;;5047589;28;20433;-70
2022/04/04 11:33:54;;;;;;;10.97;9.20;;;7.50;99.90;;;;;;5051322;28;20518;-71
2022/04/04 11:36:32;;;;;;;11.83;10.37;;;7.70;99.90;;;;;;5052361;28;20463;-71
2022/04/04 11:39:07;;;;;;;101.97;62.57;;;7.70;99.90;;;;;;5051454;28;20470;-71
2022/04/04 11:41:46;;;;;;;10.13;9.13;;;7.60;99.90;;;;;;5050986;28;20438;-70
2022/04/04 11:44:31;;;;;;;10.00;9.10;;;7.60;99.90;;;;;;5031368;28;20928;-70
2022/04/04 11:47:05;;;;;;;11.30;9.50;;;7.60;99.90;;;;;;5031250;28;20859;-73
2022/04/04 11:49:39;;;;;;;12.13;10.93;;;7.70;99.90;;;;;;5032658;28;20411;-70
2022/04/04 11:52:07;;;;;;;11.00;9.80;;;7.20;99.90;;;;;;5031121;28;20450;-71
2022/04/04 11:54:43;;;;;;;12.00;11.00;;;7.50;99.90;;;;;;5037305;28;20763;-71
2022/04/04 11:57:10;;;;;;;12.30;11.10;;;7.50;99.90;;;;;;5051178;28;20432;-71
2022/04/04 11:59:40;;;;;;;11.27;10.17;;;7.50;99.90;;;;;;5050681;28;20524;-70
2022/04/04 12:02:08;;;;;;;12.80;11.50;;;7.60;99.90;;;;;;5051229;28;20462;-70
2022/04/04 12:04:35;;;;;;;12.17;10.27;;;7.50;99.90;;;;;;5052077;28;20446;-70
2022/04/04 12:07:02;;;;;;;11.10;10.00;;;7.50;99.90;;;;;;5045281;28;20526;-70
2022/04/04 12:09:33;;;;;;;12.27;10.83;;;7.50;99.90;;;;;;5031921;28;20432;-72
2022/04/04 12:12:10;;;;;;;13.70;12.50;;;7.20;99.90;;;;;;5030725;28;20456;-76
2022/04/04 12:14:42;;;;;;;13.20;11.90;;;7.60;99.90;;;;;;5042221;28;20434;-71
2022/04/04 12:17:16;;;;;;;11.00;9.97;;;7.50;99.90;;;;;;5055648;28;20762;-71
2022/04/04 12:19:46;;;;;;;12.57;11.23;;;7.40;99.90;;;;;;5050826;28;20498;-71
2022/04/04 12:25:02;;;;;;;13.60;10.70;;;7.50;99.90;;;;;;5047861;28;20465;-76
2022/04/04 12:27:28;;;;;;;12.80;11.77;;;7.00;99.90;;;;;;5054362;28;20420;-71
2022/04/04 12:30:03;;;;;;;12.07;10.87;;;7.40;99.90;;;;;;5041319;28;20437;-71
2022/04/04 12:32:39;;;;;;;12.97;11.60;;;7.40;99.90;;;;;;5035961;28;20457;-71
2022/04/04 12:35:08;;;;;;;12.33;11.00;;;7.30;99.90;;;;;;5046298;28;20504;-71
2022/04/04 12:37:39;;;;;;;12.93;11.40;;;7.30;99.90;;;;;;5054583;28;20454;-71
2022/04/04 12:40:25;;;;;;;13.20;10.77;;;7.50;99.90;;;;;;5037412;28;20477;-71
2022/04/04 12:42:54;;;;;;;12.57;11.07;;;7.00;99.90;;;;;;5051409;28;20438;-71
2022/04/04 12:45:20;;;;;;;12.63;11.40;;;7.10;99.90;;;;;;5050612;28;21087;-71
2022/04/04 12:48:16;;;;;;;11.57;10.57;;;7.60;99.90;;;;;;5036434;28;20428;-70
2022/04/04 12:50:44;;;;;;;14.07;12.70;;;7.70;99.90;;;;;;5031029;28;20459;-70
2022/04/04 12:53:12;;;;;;;14.33;13.13;;;7.30;99.90;;;;;;5034511;28;20423;-70
2022/04/04 12:55:40;;;;;;;13.20;11.93;;;7.30;99.90;;;;;;5055333;28;20434;-69
2022/04/04 12:58:19;;;;;;;16.20;14.60;;;6.90;99.90;;;;;;5053140;28;20977;-69
2022/04/04 13:00:46;;;;;;;14.63;13.13;;;7.50;99.90;;;;;;5054788;28;20487;-69
2022/04/04 13:03:22;;;;;;;14.00;12.80;;;7.10;99.90;;;;;;5051530;28;20813;-69